createdAt,value
2023-04-29T00:01:49.099Z,8.15
2023-04-29T00:04:17.589Z,8.17
2023-04-29T00:06:46.191Z,8.18
2023-04-29T00:09:14.468Z,8.19
2023-04-29T00:11:42.642Z,8.19
2023-04-29T00:14:10.708Z,8.21
2023-04-29T00:16:38.904Z,8.24
2023-04-29T00:19:07.256Z,8.26
2023-04-29T00:21:35.529Z,8.29
2023-04-29T00:24:03.805Z,8.34
2023-04-29T00:26:32.386Z,8.37
2023-04-29T00:29:00.761Z,8.39
2023-04-29T00:31:29.540Z,8.42
2023-04-29T00:33:58.243Z,8.51
2023-04-29T00:36:26.529Z,8.59
2023-04-29T00:38:54.680Z,8.65
2023-04-29T00:41:22.853Z,8.70
2023-04-29T00:43:50.924Z,8.79
2023-04-29T00:46:19.114Z,8.88
2023-04-29T00:48:47.375Z,9.01
2023-04-29T00:51:17.502Z,9.13
2023-04-29T00:53:47.014Z,9.24
2023-04-29T00:56:17.426Z,9.33
2023-04-29T00:58:50.005Z,9.40
2023-04-29T01:01:22.439Z,9.45
2023-04-29T01:03:51.569Z,9.50
2023-04-29T01:06:25.977Z,9.52
2023-04-29T01:09:32.038Z,9.54
2023-04-29T01:12:06.857Z,9.55
2023-04-29T01:14:36.787Z,9.57
2023-04-29T01:17:12.324Z,9.58
2023-04-29T01:19:53.674Z,9.58
2023-04-29T01:22:23.520Z,9.58
2023-04-29T01:24:51.799Z,9.59
2023-04-29T01:27:30.104Z,9.57
2023-04-29T01:30:27.164Z,9.58
2023-04-29T01:33:04.830Z,9.61
2023-04-29T01:35:42.040Z,9.64
2023-04-29T01:38:13.477Z,9.66
2023-04-29T01:41:02.552Z,9.66
2023-04-29T01:43:34.319Z,9.66
2023-04-29T01:46:11.908Z,9.67
2023-04-29T01:48:40.880Z,9.70
2023-04-29T01:51:09.057Z,9.73
2023-04-29T01:53:37.428Z,9.77
2023-04-29T01:56:06.438Z,9.83
2023-04-29T01:59:00.908Z,9.87
2023-04-29T02:01:32.362Z,9.90
2023-04-29T02:04:00.759Z,9.93
2023-04-29T02:06:29.215Z,9.97
2023-04-29T02:09:01.383Z,10.00
2023-04-29T02:11:29.558Z,10.02
2023-04-29T02:13:58.762Z,10.01
2023-04-29T02:16:27.285Z,9.99
2023-04-29T02:18:59.091Z,9.97
2023-04-29T02:21:27.487Z,9.98
2023-04-29T02:23:55.848Z,9.97
2023-04-29T02:26:25.659Z,9.96
2023-04-29T02:28:57.534Z,9.94
2023-04-29T02:31:26.121Z,9.91
2023-04-29T02:33:55.803Z,9.90
2023-04-29T02:36:24.897Z,9.89
2023-04-29T02:38:56.034Z,9.88
2023-04-29T02:41:26.055Z,9.89
2023-04-29T02:43:54.336Z,9.89
2023-04-29T02:46:22.851Z,9.92
2023-04-29T02:48:51.311Z,9.93
2023-04-29T02:51:20.209Z,9.94
2023-04-29T02:53:48.463Z,9.95
2023-04-29T02:56:16.630Z,9.98
2023-04-29T02:58:44.816Z,9.99
2023-04-29T03:01:13.205Z,10.01
2023-04-29T03:03:41.777Z,10.02
2023-04-29T03:06:10.479Z,10.03
2023-04-29T03:08:38.624Z,10.04
2023-04-29T03:11:07.019Z,10.06
2023-04-29T03:13:35.474Z,10.06
2023-04-29T03:16:03.868Z,10.07
2023-04-29T03:18:32.533Z,10.09
2023-04-29T03:21:00.709Z,10.09
2023-04-29T03:23:29.281Z,10.08
2023-04-29T03:25:57.784Z,10.06
2023-04-29T03:28:27.476Z,10.04
2023-04-29T03:30:57.028Z,10.02
2023-04-29T03:33:25.559Z,9.99
2023-04-29T03:35:53.831Z,9.95
2023-04-29T03:38:26.208Z,9.92
2023-04-29T03:40:55.096Z,9.90
2023-04-29T03:43:23.469Z,9.91
2023-04-29T03:45:52.083Z,9.91
2023-04-29T03:48:21.751Z,9.92
2023-04-29T03:50:50.131Z,9.94
2023-04-29T03:53:18.737Z,9.96
2023-04-29T03:55:48.625Z,10.00
2023-04-29T03:58:17.411Z,10.02
2023-04-29T04:00:46.199Z,10.05
2023-04-29T04:03:17.851Z,10.08
2023-04-29T04:05:46.126Z,10.12
2023-04-29T04:08:16.145Z,10.15
2023-04-29T04:10:52.612Z,10.17
2023-04-29T04:13:30.816Z,10.20
2023-04-29T04:15:59.522Z,10.22
2023-04-29T04:18:27.877Z,10.24
2023-04-29T04:20:56.053Z,10.25
2023-04-29T04:23:25.967Z,10.27
2023-04-29T04:25:55.165Z,10.31
2023-04-29T04:28:46.680Z,10.33
2023-04-29T04:31:21.276Z,10.34
2023-04-29T04:33:49.681Z,10.34
2023-04-29T04:36:18.059Z,10.35
2023-04-29T04:38:46.641Z,10.37
2023-04-29T04:41:14.916Z,10.39
2023-04-29T04:43:45.452Z,10.42
2023-04-29T04:46:32.461Z,10.45
2023-04-29T04:49:07.900Z,10.49
2023-04-29T04:51:36.794Z,10.50
2023-04-29T04:54:04.962Z,10.52
2023-04-29T04:56:34.773Z,10.55
2023-04-29T04:59:03.872Z,10.57
2023-04-29T05:01:32.281Z,10.58
2023-04-29T05:04:01.164Z,10.59
2023-04-29T05:06:29.613Z,10.60
2023-04-29T05:08:58.103Z,10.64
2023-04-29T05:11:26.473Z,10.67
2023-04-29T05:14:14.811Z,10.70
2023-04-29T05:16:45.196Z,10.73
2023-04-29T05:19:13.718Z,10.79
2023-04-29T05:21:41.787Z,10.82
2023-04-29T05:24:11.516Z,10.86
2023-04-29T05:26:39.882Z,10.92
2023-04-29T05:29:08.286Z,11.00
2023-04-29T05:31:45.129Z,11.09
2023-04-29T05:34:13.501Z,11.20
2023-04-29T05:36:42.599Z,11.28
2023-04-29T05:39:10.774Z,11.32
2023-04-29T05:41:38.951Z,11.38
2023-04-29T05:44:17.969Z,11.44
2023-04-29T05:46:48.907Z,11.49
2023-04-29T05:49:17.490Z,11.55
2023-04-29T05:51:45.673Z,11.61
2023-04-29T05:54:14.548Z,11.66
2023-04-29T05:56:43.135Z,11.71
2023-04-29T05:59:11.406Z,11.76
2023-04-29T06:01:40.296Z,11.76
2023-04-29T06:04:08.733Z,11.71
2023-04-29T06:06:57.637Z,11.67
2023-04-29T06:09:45.992Z,11.62
2023-04-29T06:12:14.561Z,11.59
2023-04-29T06:14:44.674Z,11.59
2023-04-29T06:17:13.056Z,11.52
2023-04-29T06:19:41.544Z,11.43
2023-04-29T06:22:10.902Z,11.28
2023-04-29T06:24:42.077Z,11.14
2023-04-29T06:27:12.716Z,11.06
2023-04-29T06:29:40.981Z,11.04
2023-04-29T06:32:09.237Z,11.02
2023-04-29T06:34:39.690Z,11.01
2023-04-29T06:37:23.929Z,11.00
2023-04-29T06:40:07.154Z,11.02
2023-04-29T06:43:05.535Z,11.06
2023-04-29T06:46:00.126Z,11.15
2023-04-29T06:48:38.026Z,11.26
2023-04-29T06:51:06.306Z,11.34
2023-04-29T06:53:37.954Z,11.42
2023-04-29T06:56:07.773Z,11.50
2023-04-29T06:58:35.947Z,11.57
2023-04-29T07:01:05.089Z,11.66
2023-04-29T07:03:33.510Z,11.74
2023-04-29T07:06:02.023Z,11.82
2023-04-29T07:08:31.094Z,11.92
2023-04-29T07:10:59.372Z,12.01
2023-04-29T07:13:27.742Z,12.08
2023-04-29T07:15:56.226Z,12.14
2023-04-29T07:18:24.526Z,12.17
2023-04-29T07:20:53.164Z,12.23
2023-04-29T07:23:21.966Z,12.24
2023-04-29T07:25:50.136Z,12.26
2023-04-29T07:28:18.716Z,12.31
2023-04-29T07:30:47.239Z,12.28
2023-04-29T07:33:15.475Z,12.28
2023-04-29T07:35:44.767Z,12.25
2023-04-29T07:38:14.070Z,12.20
2023-04-29T07:40:43.271Z,12.18
2023-04-29T07:43:11.741Z,12.18
2023-04-29T07:45:40.733Z,12.13
2023-04-29T07:48:08.912Z,12.06
2023-04-29T07:50:37.491Z,12.02
2023-04-29T07:53:06.180Z,12.01
2023-04-29T07:55:34.342Z,12.02
2023-04-29T07:58:02.827Z,12.03
2023-04-29T08:00:31.712Z,12.02
2023-04-29T08:03:00.015Z,12.03
2023-04-29T08:05:30.973Z,12.02
2023-04-29T08:07:59.811Z,12.03
2023-04-29T08:10:28.192Z,12.08
2023-04-29T08:12:56.461Z,12.16
2023-04-29T08:15:24.844Z,12.24
2023-04-29T08:17:54.598Z,12.29
2023-04-29T08:20:23.531Z,12.34
2023-04-29T08:22:51.923Z,12.43
2023-04-29T08:25:20.499Z,12.52
2023-04-29T08:27:49.055Z,12.62
2023-04-29T08:30:17.661Z,12.72
2023-04-29T08:32:46.025Z,12.85
2023-04-29T08:35:14.318Z,12.97
2023-04-29T08:37:42.690Z,13.02
2023-04-29T08:40:11.478Z,13.08
2023-04-29T08:42:39.851Z,13.13
2023-04-29T08:45:08.646Z,13.23
2023-04-29T08:47:37.303Z,13.34
2023-04-29T08:50:06.730Z,13.48
2023-04-29T08:52:36.264Z,13.64
2023-04-29T08:55:05.775Z,13.81
2023-04-29T08:57:42.816Z,13.90
2023-04-29T09:00:12.192Z,14.05
2023-04-29T09:02:51.397Z,14.18
2023-04-29T09:05:20.134Z,14.33
2023-04-29T09:07:48.930Z,14.45
2023-04-29T09:10:17.414Z,14.60
2023-04-29T09:12:46.489Z,14.69
2023-04-29T09:15:14.669Z,14.93
2023-04-29T09:17:44.843Z,15.19
2023-04-29T09:20:22.234Z,15.40
2023-04-29T09:23:04.245Z,15.59
2023-04-29T09:25:32.721Z,15.83
2023-04-29T09:28:15.272Z,15.97
2023-04-29T09:30:47.425Z,16.24
2023-04-29T09:33:17.541Z,16.51
2023-04-29T09:35:47.262Z,16.85
2023-04-29T09:38:16.558Z,16.95
2023-04-29T09:40:58.316Z,17.13
2023-04-29T09:43:27.658Z,17.36
2023-04-29T09:45:56.025Z,17.53
2023-04-29T09:48:31.839Z,17.69
2023-04-29T09:51:04.730Z,17.86
2023-04-29T09:53:33.577Z,17.90
2023-04-29T09:56:02.865Z,17.83
2023-04-29T09:58:39.067Z,17.87
2023-04-29T10:01:07.736Z,18.00
2023-04-29T10:03:38.170Z,18.06
2023-04-29T10:06:07.944Z,17.86
2023-04-29T10:08:36.498Z,17.69
2023-04-29T10:11:06.155Z,17.47
2023-04-29T10:13:38.941Z,17.28
2023-04-29T10:16:24.009Z,17.14
2023-04-29T10:18:56.733Z,16.96
2023-04-29T10:21:31.357Z,16.71
2023-04-29T10:24:00.550Z,16.54
2023-04-29T10:26:30.091Z,16.55
2023-04-29T10:29:02.444Z,16.69
2023-04-29T10:31:32.165Z,16.82
2023-04-29T10:34:01.953Z,16.94
2023-04-29T10:36:31.795Z,17.05
2023-04-29T10:39:02.082Z,17.17
2023-04-29T10:41:35.762Z,17.35
2023-04-29T10:44:04.791Z,17.74
2023-04-29T10:46:33.067Z,17.96
2023-04-29T10:49:03.495Z,18.44
2023-04-29T10:51:34.300Z,18.99
2023-04-29T10:54:16.716Z,19.39
2023-04-29T10:56:50.596Z,19.43
2023-04-29T10:59:28.101Z,19.41
2023-04-29T11:01:56.706Z,19.85
2023-04-29T11:04:25.119Z,20.34
2023-04-29T11:06:59.268Z,20.89
2023-04-29T11:09:29.096Z,21.28
2023-04-29T11:12:01.741Z,21.09
2023-04-29T11:14:37.586Z,20.66
2023-04-29T11:17:08.763Z,20.26
2023-04-29T11:19:41.237Z,19.83
2023-04-29T11:22:10.659Z,19.44
2023-04-29T11:25:02.180Z,19.05
2023-04-29T11:27:32.704Z,18.70
2023-04-29T11:30:04.119Z,18.55
2023-04-29T11:32:37.234Z,18.30
2023-04-29T11:35:09.297Z,17.47
2023-04-29T11:37:38.178Z,16.70
2023-04-29T11:40:07.407Z,16.63
2023-04-29T11:42:39.030Z,17.05
2023-04-29T11:45:07.712Z,17.25
2023-04-29T11:47:36.123Z,17.21
2023-04-29T11:50:09.087Z,17.04
2023-04-29T11:52:39.204Z,16.91
2023-04-29T11:55:11.917Z,16.82
2023-04-29T11:57:40.857Z,16.74
2023-04-29T12:00:13.332Z,16.64
2023-04-29T12:02:45.387Z,17.02
2023-04-29T12:05:16.236Z,17.63
2023-04-29T12:07:45.011Z,17.87
2023-04-29T12:10:13.343Z,18.00
2023-04-29T12:12:44.291Z,17.86
2023-04-29T12:15:13.316Z,17.75
2023-04-29T12:17:43.062Z,17.59
2023-04-29T12:20:12.311Z,17.58
2023-04-29T12:22:44.216Z,17.53
2023-04-29T12:25:12.990Z,17.55
2023-04-29T12:27:44.235Z,17.67
2023-04-29T12:30:13.104Z,17.82
2023-04-29T12:32:42.202Z,18.05
2023-04-29T12:35:17.885Z,18.17
2023-04-29T12:37:52.342Z,18.29
2023-04-29T12:40:21.209Z,18.45
2023-04-29T12:42:49.629Z,18.63
2023-04-29T12:45:28.351Z,18.74
2023-04-29T12:48:00.966Z,18.59
2023-04-29T12:50:34.541Z,18.39
2023-04-29T12:53:05.042Z,18.17
2023-04-29T12:55:38.049Z,17.91
2023-04-29T12:58:07.528Z,17.63
2023-04-29T13:00:37.715Z,17.44
2023-04-29T13:03:06.323Z,17.31
2023-04-29T13:05:35.045Z,17.17
2023-04-29T13:08:06.097Z,16.91
2023-04-29T13:10:34.857Z,16.38
2023-04-29T13:13:03.130Z,15.88
2023-04-29T13:15:33.432Z,15.48
2023-04-29T13:18:02.666Z,15.00
2023-04-29T13:20:31.430Z,14.56
2023-04-29T13:22:59.809Z,14.25
2023-04-29T13:25:27.982Z,13.97
2023-04-29T13:27:56.171Z,13.87
2023-04-29T13:30:24.539Z,13.91
2023-04-29T13:32:55.521Z,13.99
2023-04-29T13:35:26.915Z,14.21
2023-04-29T13:37:55.093Z,14.44
2023-04-29T13:40:27.562Z,14.64
2023-04-29T13:43:04.375Z,14.82
2023-04-29T13:45:39.928Z,14.94
2023-04-29T13:48:20.976Z,15.15
2023-04-29T13:56:59.704Z,16.71
2023-04-29T14:03:54.272Z,16.95
2023-04-29T14:06:22.710Z,17.74
2023-04-29T14:08:51.187Z,18.43
2023-04-29T14:11:19.876Z,18.78
2023-04-29T14:13:47.952Z,19.48
2023-04-29T14:16:17.191Z,20.03
2023-04-29T14:18:45.438Z,20.10
2023-04-29T14:21:13.998Z,19.92
2023-04-29T14:23:42.277Z,19.80
2023-04-29T14:26:27.020Z,19.55
2023-04-29T14:29:00.054Z,19.38
2023-04-29T14:31:30.793Z,19.15
2023-04-29T14:33:59.568Z,18.84
2023-04-29T14:36:28.448Z,18.61
2023-04-29T14:38:56.701Z,18.36
2023-04-29T14:41:25.385Z,18.09
2023-04-29T14:43:53.760Z,17.80
2023-04-29T14:46:25.527Z,17.40
2023-04-29T14:48:53.689Z,16.99
2023-04-29T14:51:21.756Z,16.82
2023-04-29T14:53:50.440Z,16.68
2023-04-29T14:56:18.718Z,16.49
2023-04-29T14:58:46.788Z,16.30
2023-04-29T15:01:15.073Z,16.05
2023-04-29T15:03:44.781Z,15.89
2023-04-29T15:06:13.503Z,15.79
2023-04-29T15:08:41.932Z,15.68
2023-04-29T15:11:10.204Z,15.57
2023-04-29T15:13:38.479Z,15.40
2023-04-29T15:16:08.001Z,15.26
2023-04-29T15:18:36.897Z,15.18
2023-04-29T15:21:05.149Z,15.09
2023-04-29T15:23:33.636Z,15.01
2023-04-29T15:26:01.801Z,14.98
2023-04-29T15:28:30.082Z,14.95
2023-04-29T15:31:00.003Z,14.90
2023-04-29T15:33:28.162Z,14.83
2023-04-29T15:35:57.265Z,14.71
2023-04-29T15:38:25.427Z,14.58
2023-04-29T15:40:59.440Z,14.37
2023-04-29T15:43:28.317Z,14.22
2023-04-29T15:45:56.951Z,14.08
2023-04-29T15:48:25.405Z,13.94
2023-04-29T15:50:53.878Z,13.80
2023-04-29T15:53:23.438Z,13.68
2023-04-29T15:55:51.856Z,13.54
2023-04-29T15:58:20.019Z,13.43
2023-04-29T16:00:48.748Z,13.34
2023-04-29T16:03:16.946Z,13.29
2023-04-29T16:05:45.363Z,13.18
2023-04-29T16:08:13.941Z,13.06
2023-04-29T16:10:42.011Z,12.95
2023-04-29T16:13:10.186Z,12.86
2023-04-29T16:15:38.574Z,12.78
2023-04-29T16:18:06.935Z,12.71
2023-04-29T16:20:35.018Z,12.69
2023-04-29T16:23:03.294Z,12.64
2023-04-29T16:25:31.454Z,12.58
2023-04-29T16:27:59.538Z,12.52
2023-04-29T16:30:28.317Z,12.49
2023-04-29T16:32:56.727Z,12.42
2023-04-29T16:35:26.809Z,12.36
2023-04-29T16:37:55.811Z,12.29
2023-04-29T16:40:24.646Z,12.25
2023-04-29T16:42:53.614Z,12.20
2023-04-29T16:45:23.834Z,12.16
2023-04-29T16:47:52.469Z,12.12
2023-04-29T16:50:20.655Z,12.06
2023-04-29T16:52:48.837Z,12.03
2023-04-29T16:55:17.117Z,12.00
2023-04-29T16:57:45.276Z,11.95
2023-04-29T17:00:14.143Z,11.91
2023-04-29T17:02:43.174Z,11.86
2023-04-29T17:05:11.658Z,11.80
2023-04-29T17:07:40.833Z,11.77
2023-04-29T17:10:10.026Z,11.76
2023-04-29T17:12:39.123Z,11.73
2023-04-29T17:15:08.010Z,11.71
2023-04-29T17:17:36.654Z,11.67
2023-04-29T17:20:05.582Z,11.63
2023-04-29T17:22:33.761Z,11.63
2023-04-29T17:25:02.556Z,11.63
2023-04-29T17:27:31.199Z,11.61
2023-04-29T17:29:59.313Z,11.60
2023-04-29T17:32:30.672Z,11.58
2023-04-29T17:34:59.736Z,11.56
2023-04-29T17:37:30.446Z,11.54
2023-04-29T17:39:58.745Z,11.53
2023-04-29T17:42:26.910Z,11.53
2023-04-29T17:44:55.198Z,11.54
2023-04-29T17:47:23.523Z,11.54
2023-04-29T17:49:52.206Z,11.56
2023-04-29T17:52:21.518Z,11.56
2023-04-29T17:54:49.834Z,11.59
2023-04-29T17:57:18.003Z,11.58
2023-04-29T17:59:47.293Z,11.57
2023-04-29T18:02:15.567Z,11.58
2023-04-29T18:04:43.846Z,11.58
2023-04-29T18:07:12.125Z,11.59
2023-04-29T18:09:40.301Z,11.59
2023-04-29T18:12:09.010Z,11.58
2023-04-29T18:14:39.296Z,11.57
2023-04-29T18:17:07.690Z,11.57
2023-04-29T18:19:35.949Z,11.58
2023-04-29T18:22:04.122Z,11.57
2023-04-29T18:24:32.303Z,11.55
2023-04-29T18:27:00.475Z,11.54
2023-04-29T18:29:28.647Z,11.53
2023-04-29T18:31:56.895Z,11.55
2023-04-29T18:34:25.288Z,11.55
2023-04-29T18:36:53.567Z,11.54
2023-04-29T18:39:21.951Z,11.53
2023-04-29T18:41:50.115Z,11.52
2023-04-29T18:44:18.283Z,11.53
2023-04-29T18:46:46.457Z,11.53
2023-04-29T18:49:17.159Z,11.53
2023-04-29T18:51:48.078Z,11.52
2023-04-29T18:54:17.950Z,11.54
2023-04-29T18:56:47.706Z,11.55
2023-04-29T18:59:19.619Z,11.55
2023-04-29T19:01:49.138Z,11.55
2023-04-29T19:04:17.413Z,11.55
2023-04-29T19:06:45.602Z,11.54
2023-04-29T19:09:14.552Z,11.54
2023-04-29T19:11:42.830Z,11.54
2023-04-29T19:14:11.304Z,11.53
2023-04-29T19:16:39.676Z,11.53
2023-04-29T19:19:07.865Z,11.53
2023-04-29T19:21:36.226Z,11.54
2023-04-29T19:24:04.807Z,11.54
2023-04-29T19:26:34.955Z,11.55
2023-04-29T19:29:04.740Z,11.55
2023-04-29T19:31:33.342Z,11.53
2023-04-29T19:34:02.008Z,11.52
2023-04-29T19:36:30.380Z,11.52
2023-04-29T19:38:58.570Z,11.51
2023-04-29T19:41:26.732Z,11.51
2023-04-29T19:43:54.797Z,11.50
2023-04-29T19:46:22.983Z,11.48
2023-04-29T19:48:51.266Z,11.48
2023-04-29T19:51:19.523Z,11.47
2023-04-29T19:53:47.796Z,11.46
2023-04-29T19:56:16.580Z,11.45
2023-04-29T19:58:44.753Z,11.44
2023-04-29T20:01:12.835Z,11.44
2023-04-29T20:03:41.929Z,11.44
2023-04-29T20:06:10.678Z,11.43
2023-04-29T20:08:38.884Z,11.43
2023-04-29T20:11:07.053Z,11.42
2023-04-29T20:13:35.222Z,11.38
2023-04-29T20:16:03.422Z,11.32
2023-04-29T20:18:31.666Z,11.26
2023-04-29T20:21:00.047Z,11.22
2023-04-29T20:23:28.318Z,11.16
2023-04-29T20:25:57.102Z,11.12
2023-04-29T20:28:25.377Z,11.07
2023-04-29T20:30:53.449Z,11.02
2023-04-29T20:33:21.826Z,10.99
2023-04-29T20:35:50.004Z,10.97
2023-04-29T20:38:18.176Z,10.96
2023-04-29T20:40:46.442Z,10.93
2023-04-29T20:43:14.717Z,10.91
2023-04-29T20:45:43.139Z,10.88
2023-04-29T20:48:11.288Z,10.85
2023-04-29T20:50:39.440Z,10.83
2023-04-29T20:53:07.717Z,10.81
2023-04-29T20:55:35.995Z,10.81
2023-04-29T20:58:04.063Z,10.79
2023-04-29T21:00:32.236Z,10.77
2023-04-29T21:03:00.454Z,10.76
2023-04-29T21:05:28.685Z,10.74
2023-04-29T21:07:56.855Z,10.75
2023-04-29T21:10:25.131Z,10.74
2023-04-29T21:12:53.303Z,10.72
2023-04-29T21:15:21.481Z,10.71
2023-04-29T21:17:49.670Z,10.68
2023-04-29T21:20:17.834Z,10.66
2023-04-29T21:22:46.093Z,10.64
2023-04-29T21:25:14.164Z,10.62
2023-04-29T21:27:42.334Z,10.61
2023-04-29T21:30:11.428Z,10.61
2023-04-29T21:32:39.521Z,10.60
2023-04-29T21:35:08.765Z,10.59
2023-04-29T21:37:37.275Z,10.57
2023-04-29T21:40:06.268Z,10.56
2023-04-29T21:42:34.951Z,10.55
2023-04-29T21:45:03.430Z,10.53
2023-04-29T21:47:31.723Z,10.51
2023-04-29T21:50:00.901Z,10.48
2023-04-29T21:52:34.945Z,10.44
2023-04-29T21:55:04.103Z,10.42
2023-04-29T21:57:43.689Z,10.40
2023-04-29T22:00:33.188Z,10.38
2023-04-29T22:03:05.613Z,10.36
2023-04-29T22:05:33.872Z,10.34
2023-04-29T22:08:03.259Z,10.32
2023-04-29T22:10:31.948Z,10.31
2023-04-29T22:13:00.224Z,10.30
2023-04-29T22:15:29.465Z,10.30
2023-04-29T22:17:58.420Z,10.28
2023-04-29T22:20:28.032Z,10.29
2023-04-29T22:22:56.595Z,10.29
2023-04-29T22:25:24.880Z,10.30
2023-04-29T22:27:53.042Z,10.28
2023-04-29T22:30:21.363Z,10.29
2023-04-29T22:32:49.642Z,10.29
2023-04-29T22:35:17.997Z,10.26
2023-04-29T22:37:46.352Z,10.25
2023-04-29T22:40:14.621Z,10.23
2023-04-29T22:42:43.167Z,10.21
2023-04-29T22:45:12.600Z,10.19
2023-04-29T22:47:40.929Z,10.17
2023-04-29T22:50:10.387Z,10.16
2023-04-29T22:52:38.569Z,10.14
2023-04-29T22:55:07.278Z,10.13
2023-04-29T22:57:35.627Z,10.12
2023-04-29T23:00:04.304Z,10.11
2023-04-29T23:02:32.548Z,10.09
2023-04-29T23:05:01.045Z,10.07
2023-04-29T23:07:29.336Z,10.08
2023-04-29T23:09:57.501Z,10.06
2023-04-29T23:12:25.683Z,10.06
2023-04-29T23:14:53.949Z,10.04
2023-04-29T23:17:22.221Z,10.04
2023-04-29T23:19:50.402Z,10.02
2023-04-29T23:22:18.774Z,10.01
2023-04-29T23:24:47.067Z,9.98
2023-04-29T23:27:15.224Z,9.95
2023-04-29T23:29:43.394Z,9.93
2023-04-29T23:32:11.463Z,9.91
2023-04-29T23:34:39.737Z,9.90
2023-04-29T23:37:07.910Z,9.89
2023-04-29T23:39:36.162Z,9.89
2023-04-29T23:42:04.356Z,9.88
2023-04-29T23:44:32.528Z,9.87
2023-04-29T23:47:00.909Z,9.86
2023-04-29T23:49:28.979Z,9.84
2023-04-29T23:51:57.169Z,9.82
2023-04-29T23:54:25.431Z,9.80
2023-04-29T23:56:53.595Z,9.77
2023-04-29T23:59:21.790Z,9.75
